• Join FlightAware (Why Join?)
  • Login
  • US Flag 
10:56AM EDT


 

Airport Tracker/Info


-or-


 

Live Flight TrackerFlight Track Log ✈ N924AK ✈ 27-Apr-2013 ✈ KOCF - KSRQ

Flight Track Log - Related Links

Times and Time Zones

All times are in EDT time to prevent confusion due to time zone crossing. See the N924AK flight status page for this flight to view local times or setup timezone preferences in your user account.

Time Position Orientation Groundspeed Altitude Reporting Facility
EDT Latitude Longitude Course Direction KTS MPH feet Rate Location/Type
05:37PM 29.1814 -82.2267 354° North 138 159 700  Level Jacksonville Center
05:37PM 29.2000 -82.2289 354° North 167 192 1,800 1,560 Climbing Jacksonville Center
05:38PM 29.1983 -82.2883 268° West 240 276 3,000 1,440 Climbing Jacksonville Center
05:39PM 29.1378 -82.2769 171° South 237 273 4,800 1,980 Climbing Jacksonville Center
05:40PM 29.0769 -82.2272 144° Southeast 250 288 7,100 1,020 Climbing Jacksonville Center
05:41PM 29.0058 -82.1994 161° South 276 318 7,000 -60 Descending Jacksonville Center
05:42PM 28.9328 -82.1881 172° South 274 315 7,000 180 Level Jacksonville Center
05:45PM 28.7500 -82.1500 170° South 277 319 7,800 540 Climbing Tampa TRACON
05:46PM 28.6833 -82.1333 168° South 278 320 9,000 600 Climbing Tampa TRACON
05:47PM 28.6000 -82.1167 170° South 296 341 9,000  Level Tampa TRACON
05:48PM 28.5167 -82.1167 180° South 293 337 9,000  Level Tampa TRACON
05:49PM 28.4333 -82.1000 170° South 290 334 9,000  Level Tampa TRACON
05:50PM 28.3667 -82.0833 168° South 286 329 9,100  Climbing Tampa TRACON
05:51PM 28.2833 -82.0667 170° South 298 343 9,000 -60 Descending Tampa TRACON
05:52PM 28.2000 -82.0500 170° South 291 335 9,000  Level Tampa TRACON
05:53PM 28.1167 -82.0333 170° South 290 334 9,100  Climbing Tampa TRACON
05:54PM 28.0333 -82.0333 180° South 303 349 9,000 -60 Descending Tampa TRACON
05:55PM 27.9667 -82.0667 204° Southwest 295 339 9,000  Level Tampa TRACON
05:56PM 27.9000 -82.1167 214° Southwest 290 334 9,000 -660 Level Tampa TRACON
05:57PM 27.8333 -82.1833 221° Southwest 284 327 7,700 -1,380 Descending Tampa TRACON
05:58PM 27.7667 -82.2167 204° Southwest 266 306 6,300 -900 Descending Tampa TRACON
05:59PM 27.7000 -82.2500 204° Southwest 267 307 6,000 -840 Descending Tampa TRACON
06:00PM 27.6500 -82.2833 211° Southwest 260 299 4,700 -1,380 Descending Tampa TRACON
06:01PM 27.5833 -82.3167 204° Southwest 259 298 3,400 -1,200 Descending Tampa TRACON
06:02PM 27.5167 -82.3667 214° Southwest 242 278 2,200 -660 Descending Tampa TRACON
06:03PM 27.4500 -82.4000 204° Southwest 244 281 2,100 -60 Descending Tampa TRACON
06:04PM 27.4000 -82.4333 211° Southwest 217 250 2,100 -180 Level Tampa TRACON
06:05PM 27.3667 -82.4833 233° Southwest 163 188 1,800 -660 Descending Tampa TRACON
06:06PM 27.3667 -82.5167 270° West 135 155 800 -1,140 Descending Tampa TRACON
06:08PM 27.3833 -82.5500 180° South  Level FlightAware Approximate
06:15PM 27.3954 -82.5544 180° South  Level Estimated
06:16PM 27.3954 -82.5544 180° South  Level Estimated